Terminal Aerodrome Forecast
Issued by NWS Cleveland, OH

Home | Current Version | Previous Version | Graphics & Text | Print | Product List | Glossary On
Versions: 1 2 3 4 5 6 7 8 9 10 11 12 13 14 15 16 17 18 19 20 21 22
000
FTUS41 KCLE 221700
TAFYNG
TAF
KYNG 221737Z 2218/2318 19011KT 5SM BR SCT005 BKN012 OVC020
     FM222100 21012G18KT P6SM VCSH SCT025 OVC040
      TEMPO 2221/2224 5SM -RA BKN025
     FM230300 18008KT 5SM BR OVC025
     FM231500 20012KT P6SM VCSH OVC025=

USA.gov is the U.S. government's official web portal to all federal, state and local government web resources and services.